Aérodrome :
LOGIN :

S'inscrire | Disclaimer

   EN    FR    IT 

 










Légende :    VFR   VFR Marginal   IFR   IFR Intensif   IFR Très Intensif
Visi : 
Plafond : 
>= 8 km
>= 3000ft
5 à 8 km
1000 à 3000 ft
1500m à 5 km
500 à 1000 ft
800 à 1500m
200 à 500 ft
< 800m
< 200 ft
Symboles :   Orages  Brouillard  Fortes neiges  Fortes précipitations  Vent > 20 kt
SIGMETs :   Divers  Orages  Givrage  Turbulence  Onde Orograph.  Cendres Volcan.






- Altitude de l'aérodrome : 13 ft
- Code IATA : OST


EBOS - Oostend bruges Int.

DERNIER METAR :
  • 051850Z 19011KT 2200 BR BKN003 04/02 Q1018 BECMG 3000 BR BKN006

METARs EXPIRÉS :
  • 051820Z 19012KT 2200 BR BKN003 03/02 Q1018 BECMG 3000 BR BKN006
  • 051750Z 19011KT 1600 BR BKN003 03/02 Q1018 BECMG 3000 BR BKN006
  • 051720Z 19011KT 0700 R08/1800U R26/1800N FG SCT001 BKN002 03/03 Q1019 BECMG 1000 FG BKN002
  • 051650Z 19010KT 0550 R08/1300N R26/1500N FG BKN001 03/03 Q1019 BECMG 0800 FG BKN002
  • 051620Z 19009KT 0600 R08/1600N R26/1500N FG BKN001 03/02 Q1019 BECMG 0800 FG BKN002

TAF TAF EBOS
Valide du 05 à 18h jusqu'au 07 à 00h UTC


051720Z 0518/0624 20010KT 6000 BKN015
TEMPO 0518/0522 1200 BR BKN006
PROB40
TEMPO 0518/0522 0200 FG BKN001
BECMG 0521/0523 BKN012
TEMPO 0521/0612 3800 RA RADZ BKN008
BECMG 0522/0524 21017G33KT
BECMG 0611/0613 SCT015
PROB30
TEMPO 0616/0621 4000 SHRA BKN014CB
BECMG 0620/0622 26014KT



MET'MAP, la Météo Aéronautique d'un coup d'oeil ! - Copyright ORBIFLY Décembre 2007 - Disclaimer

ORBIFLY MET'MAP TEAM :

Programmation & Développement : Alexandra Zaïnal
Sur une idée originale de : Baudouin d'Aumeries
Assistance à la programmation : Marc-Olivier Méhu
Soutien technique & logistique : Manuel Goepfert

Contact : metmap@orbifly.com




SOURCES & CREDITS :

   NOAA